createdAt,value
2018-09-20T00:00:43.907Z,100495.00
2018-09-20T00:03:24.412Z,100491.00
2018-09-20T00:06:33.596Z,100491.00
2018-09-20T00:09:23.798Z,100487.00
2018-09-20T00:12:09.381Z,100489.00
2018-09-20T00:17:43.888Z,100490.00
2018-09-20T00:23:08.390Z,100491.00
2018-09-20T00:25:39.095Z,100496.00
2018-09-20T00:28:08.715Z,100496.00
2018-09-20T00:30:38.215Z,100499.00
2018-09-20T00:33:07.784Z,100499.00
2018-09-20T00:35:37.352Z,100494.00
2018-09-20T00:38:07.649Z,100497.00
2018-09-20T00:40:37.356Z,100500.00
2018-09-20T00:43:07.189Z,100503.00
2018-09-20T00:45:38.110Z,100503.00
2018-09-20T00:48:07.795Z,100500.00
2018-09-20T00:50:37.353Z,100501.00
2018-09-20T00:53:07.780Z,100497.00
2018-09-20T00:55:37.379Z,100501.00
2018-09-20T00:58:07.011Z,100505.00
2018-09-20T01:00:36.578Z,100501.00
2018-09-20T01:03:07.666Z,100503.00
2018-09-20T01:05:37.142Z,100507.00
2018-09-20T01:08:06.934Z,100509.00
2018-09-20T01:10:36.796Z,100505.00
2018-09-20T01:13:06.762Z,100503.00
2018-09-20T01:15:37.135Z,100513.00
2018-09-20T01:18:07.133Z,100510.00
2018-09-20T01:20:37.934Z,100510.00
2018-09-20T01:23:08.081Z,100511.00
2018-09-20T01:25:37.718Z,100513.00
2018-09-20T01:28:07.264Z,100510.00
2018-09-20T01:30:36.730Z,100519.00
2018-09-20T01:33:06.315Z,100517.00
2018-09-20T01:35:36.915Z,100517.00
2018-09-20T01:38:06.568Z,100518.00
2018-09-20T01:40:36.205Z,100517.00
2018-09-20T01:43:06.009Z,100521.00
2018-09-20T01:45:35.763Z,100522.00
2018-09-20T01:48:05.343Z,100526.00
2018-09-20T01:50:34.992Z,100527.00
2018-09-20T01:53:05.168Z,100536.00
2018-09-20T01:55:34.872Z,100533.00
2018-09-20T01:58:04.677Z,100529.00
2018-09-20T02:00:34.912Z,100535.00
2018-09-20T02:03:06.653Z,100537.00
2018-09-20T02:05:36.414Z,100534.00
2018-09-20T02:08:06.173Z,100533.00
2018-09-20T02:10:36.413Z,100536.00
2018-09-20T02:13:16.286Z,100531.00
2018-09-20T02:15:45.800Z,100531.00
2018-09-20T02:18:15.446Z,100537.00
2018-09-20T02:20:46.819Z,100532.00
2018-09-20T02:23:16.563Z,100531.00
2018-09-20T02:25:46.497Z,100531.00
2018-09-20T02:28:17.198Z,100524.00
2018-09-20T02:30:46.962Z,100525.00
2018-09-20T02:33:16.735Z,100525.00
2018-09-20T02:35:46.382Z,100533.00
2018-09-20T02:38:16.229Z,100530.00
2018-09-20T02:40:45.855Z,100533.00
2018-09-20T02:43:16.122Z,100529.00
2018-09-20T02:45:45.732Z,100536.00
2018-09-20T02:48:15.351Z,100535.00
2018-09-20T02:50:44.955Z,100543.00
2018-09-20T02:53:14.595Z,100542.00
2018-09-20T02:55:44.155Z,100542.00
2018-09-20T02:58:13.899Z,100543.00
2018-09-20T03:00:43.814Z,100547.00
2018-09-20T03:03:13.972Z,100549.00
2018-09-20T03:05:43.470Z,100555.00
2018-09-20T03:08:13.079Z,100560.00
2018-09-20T03:10:42.719Z,100565.00
2018-09-20T03:13:13.093Z,100574.00
2018-09-20T03:15:42.862Z,100574.00
2018-09-20T03:18:13.185Z,100564.00
2018-09-20T03:20:42.794Z,100561.00
2018-09-20T03:23:12.460Z,100559.00
2018-09-20T03:25:42.309Z,100556.00
2018-09-20T03:28:12.702Z,100556.00
2018-09-20T03:30:42.463Z,100554.00
2018-09-20T03:33:12.283Z,100554.00
2018-09-20T03:35:42.204Z,100556.00
2018-09-20T03:38:13.517Z,100553.00
2018-09-20T03:40:43.200Z,100549.00
2018-09-20T03:43:13.017Z,100555.00
2018-09-20T03:45:43.720Z,100559.00
2018-09-20T03:48:13.388Z,100553.00
2018-09-20T03:50:43.017Z,100554.00
2018-09-20T03:53:12.560Z,100547.00
2018-09-20T03:55:42.074Z,100552.00
2018-09-20T03:58:11.666Z,100550.00
2018-09-20T04:00:41.372Z,100550.00
2018-09-20T04:03:10.924Z,100557.00
2018-09-20T04:05:40.533Z,100559.00
2018-09-20T04:08:10.119Z,100553.00
2018-09-20T04:10:39.723Z,100555.00
2018-09-20T04:13:09.177Z,100554.00
2018-09-20T04:15:38.738Z,100561.00
2018-09-20T04:18:08.844Z,100555.00
2018-09-20T04:20:38.377Z,100557.00
2018-09-20T04:23:08.198Z,100553.00
2018-09-20T04:25:37.818Z,100552.00
2018-09-20T04:28:08.451Z,100551.00
2018-09-20T04:30:38.297Z,100549.00
2018-09-20T04:33:08.881Z,100543.00
2018-09-20T04:35:38.607Z,100540.00
2018-09-20T04:38:08.459Z,100544.00
2018-09-20T04:40:38.126Z,100550.00
2018-09-20T04:43:07.884Z,100549.00
2018-09-20T04:45:38.589Z,100553.00
2018-09-20T04:48:09.046Z,100559.00
2018-09-20T04:50:39.971Z,100560.00
2018-09-20T04:53:10.382Z,100557.00
2018-09-20T04:55:40.204Z,100561.00
2018-09-20T04:58:10.224Z,100565.00
2018-09-20T05:00:41.687Z,100573.00
2018-09-20T05:03:11.664Z,100579.00
2018-09-20T05:05:45.189Z,100586.00
2018-09-20T05:08:14.888Z,100587.00
2018-09-20T05:10:44.605Z,100585.00
2018-09-20T05:13:14.080Z,100584.00
2018-09-20T05:15:43.891Z,100587.00
2018-09-20T05:18:13.800Z,100586.00
2018-09-20T05:20:43.313Z,100588.00
2018-09-20T05:23:13.195Z,100586.00
2018-09-20T05:25:46.742Z,100584.00
2018-09-20T05:28:16.425Z,100584.00
2018-09-20T05:30:46.158Z,100580.00
2018-09-20T05:33:16.949Z,100577.00
2018-09-20T05:35:46.543Z,100581.00
2018-09-20T05:38:18.251Z,100586.00
2018-09-20T05:40:48.153Z,100590.00
2018-09-20T05:43:18.880Z,100590.00
2018-09-20T05:45:48.498Z,100586.00
2018-09-20T05:48:18.924Z,100583.00
2018-09-20T05:50:49.363Z,100582.00
2018-09-20T05:53:18.856Z,100587.00
2018-09-20T05:55:49.487Z,100593.00
2018-09-20T05:58:19.606Z,100600.00
2018-09-20T06:00:50.846Z,100598.00
2018-09-20T06:03:20.892Z,100592.00
2018-09-20T06:05:55.448Z,100593.00
2018-09-20T06:08:26.042Z,100588.00
2018-09-20T06:10:57.838Z,100589.00
2018-09-20T06:13:29.000Z,100587.00
2018-09-20T06:15:59.971Z,100595.00
2018-09-20T06:18:35.277Z,100592.00
2018-09-20T06:21:10.551Z,100590.00
2018-09-20T06:23:44.462Z,100597.00
2018-09-20T06:26:30.364Z,100597.00
2018-09-20T06:29:07.649Z,100603.00
2018-09-20T06:31:44.004Z,100612.00
2018-09-20T06:34:24.564Z,100607.00
2018-09-20T06:37:00.551Z,100603.00
2018-09-20T06:39:33.949Z,100596.00
2018-09-20T06:42:07.739Z,100594.00
2018-09-20T06:44:40.410Z,100598.00
2018-09-20T06:47:11.168Z,100596.00
2018-09-20T06:49:43.821Z,100598.00
2018-09-20T06:52:15.432Z,100601.00
2018-09-20T06:54:47.665Z,100605.00
2018-09-20T06:57:18.380Z,100601.00
2018-09-20T06:59:55.050Z,100606.00
2018-09-20T07:02:25.807Z,100612.00
2018-09-20T07:05:01.341Z,100603.00
2018-09-20T07:07:32.271Z,100606.00
2018-09-20T07:10:02.938Z,100605.00
2018-09-20T07:12:35.705Z,100604.00
2018-09-20T07:15:09.909Z,100596.00
2018-09-20T07:17:42.571Z,100604.00
2018-09-20T07:20:12.861Z,100596.00
2018-09-20T07:22:45.760Z,100595.00
2018-09-20T07:25:18.167Z,100595.00
2018-09-20T07:27:57.087Z,100597.00
2018-09-20T07:30:27.068Z,100600.00
2018-09-20T07:33:00.230Z,100598.00
2018-09-20T07:35:32.471Z,100591.00
2018-09-20T07:38:03.418Z,100590.00
2018-09-20T07:40:36.176Z,100595.00
2018-09-20T07:43:07.551Z,100595.00
2018-09-20T07:45:45.695Z,100595.00
2018-09-20T07:48:17.836Z,100595.00
2018-09-20T07:50:56.489Z,100591.00
2018-09-20T07:53:38.815Z,100592.00
2018-09-20T07:56:16.943Z,100593.00
2018-09-20T07:58:49.550Z,100588.00
2018-09-20T08:01:34.000Z,100589.00
2018-09-20T08:07:09.712Z,100587.00
2018-09-20T08:09:42.968Z,100590.00
2018-09-20T08:12:15.388Z,100581.00
2018-09-20T08:14:46.764Z,100587.00
2018-09-20T08:17:18.519Z,100587.00
2018-09-20T08:19:52.631Z,100583.00
2018-09-20T08:22:27.903Z,100585.00
2018-09-20T08:25:02.386Z,100576.00
2018-09-20T08:27:39.376Z,100579.00
2018-09-20T08:30:10.496Z,100576.00
2018-09-20T08:36:17.991Z,100578.00
2018-09-20T08:38:50.674Z,100575.00
2018-09-20T08:41:20.379Z,100572.00
2018-09-20T08:43:50.291Z,100571.00
2018-09-20T08:46:20.339Z,100570.00
2018-09-20T08:48:55.868Z,100568.00
2018-09-20T08:51:28.845Z,100565.00
2018-09-20T08:53:58.852Z,100568.00
2018-09-20T08:56:32.460Z,100564.00
2018-09-20T08:59:30.149Z,100562.00
2018-09-20T09:05:00.272Z,100556.00
2018-09-20T09:07:42.744Z,100555.00
2018-09-20T09:10:13.604Z,100550.00
2018-09-20T09:12:50.729Z,100543.00
2018-09-20T09:15:23.194Z,100541.00
2018-09-20T09:20:37.476Z,100540.00
2018-09-20T09:23:10.067Z,100534.00
2018-09-20T09:25:40.854Z,100530.00
2018-09-20T09:28:14.249Z,100527.00
2018-09-20T09:30:50.006Z,100522.00
2018-09-20T09:36:37.370Z,100518.00
2018-09-20T09:39:12.169Z,100522.00
2018-09-20T09:41:46.712Z,100514.00
2018-09-20T09:44:17.550Z,100514.00
2018-09-20T09:46:48.174Z,100512.00
2018-09-20T09:49:27.631Z,100509.00
2018-09-20T09:51:58.254Z,100508.00
2018-09-20T09:54:30.124Z,100511.00
2018-09-20T09:57:01.992Z,100503.00
2018-09-20T09:59:31.652Z,100500.00
2018-09-20T10:02:03.566Z,100486.00
2018-09-20T10:04:34.916Z,100485.00
2018-09-20T10:07:07.780Z,100486.00
2018-09-20T10:09:39.354Z,100485.00
2018-09-20T10:12:10.954Z,100479.00
2018-09-20T10:14:42.506Z,100475.00
2018-09-20T10:17:12.760Z,100479.00
2018-09-20T10:19:50.082Z,100472.00
2018-09-20T10:22:20.445Z,100468.00
2018-09-20T10:24:53.604Z,100467.00
2018-09-20T10:27:26.009Z,100465.00
2018-09-20T10:29:56.196Z,100463.00
2018-09-20T10:32:38.591Z,100456.00
2018-09-20T10:38:54.433Z,100455.00
2018-09-20T10:41:29.597Z,100449.00
2018-09-20T10:44:04.302Z,100445.00
2018-09-20T10:46:34.220Z,100439.00
2018-09-20T10:49:05.126Z,100440.00
2018-09-20T10:51:37.111Z,100437.00
2018-09-20T10:54:32.299Z,100429.00
2018-09-20T10:57:34.163Z,100417.00
2018-09-20T11:00:13.386Z,100418.00
2018-09-20T11:02:53.002Z,100412.00
2018-09-20T11:05:26.164Z,100415.00
2018-09-20T11:07:55.875Z,100410.00
2018-09-20T11:10:25.985Z,100405.00
2018-09-20T11:12:57.642Z,100399.00
2018-09-20T11:15:28.394Z,100402.00
2018-09-20T11:18:01.365Z,100400.00
2018-09-20T11:20:31.715Z,100399.00
2018-09-20T11:23:02.638Z,100394.00
2018-09-20T11:25:37.393Z,100388.00
2018-09-20T11:28:14.844Z,100382.00
2018-09-20T11:30:57.571Z,100392.00
2018-09-20T11:33:30.969Z,100378.00
2018-09-20T11:36:04.171Z,100376.00
2018-09-20T11:38:35.301Z,100374.00
2018-09-20T11:41:09.604Z,100368.00
2018-09-20T11:43:45.654Z,100361.00
2018-09-20T11:46:25.116Z,100356.00
2018-09-20T12:04:50.312Z,100342.00
2018-09-20T12:07:25.140Z,100338.00
2018-09-20T12:09:57.065Z,100334.00
2018-09-20T12:12:42.098Z,100332.00
2018-09-20T12:15:16.866Z,100325.00
2018-09-20T12:17:54.912Z,100326.00
2018-09-20T12:20:31.698Z,100325.00
2018-09-20T12:23:03.133Z,100319.00
2018-09-20T12:25:37.987Z,100320.00
2018-09-20T12:28:10.349Z,100305.00
2018-09-20T12:30:43.454Z,100306.00
2018-09-20T12:33:13.234Z,100303.00
2018-09-20T12:35:46.902Z,100297.00
2018-09-20T12:38:19.907Z,100291.00
2018-09-20T12:40:51.529Z,100287.00
2018-09-20T12:43:24.314Z,100281.00
2018-09-20T12:45:55.793Z,100280.00
2018-09-20T12:48:26.546Z,100272.00
2018-09-20T12:50:57.891Z,100269.00
2018-09-20T12:53:28.435Z,100264.00
2018-09-20T12:56:01.291Z,100259.00
2018-09-20T12:58:37.050Z,100256.00
2018-09-20T13:01:10.175Z,100249.00
2018-09-20T13:03:41.215Z,100255.00
2018-09-20T13:06:16.022Z,100251.00
2018-09-20T13:08:47.361Z,100251.00
2018-09-20T13:11:22.650Z,100250.00
2018-09-20T13:13:56.786Z,100244.00
2018-09-20T13:16:28.562Z,100247.00
2018-09-20T13:19:03.356Z,100237.00
2018-09-20T13:21:34.845Z,100245.00
2018-09-20T13:24:09.387Z,100246.00
2018-09-20T13:26:41.019Z,100239.00
2018-09-20T13:29:11.035Z,100249.00
2018-09-20T13:31:44.257Z,100241.00
2018-09-20T13:34:27.775Z,100232.00
2018-09-20T13:37:04.081Z,100224.00
2018-09-20T13:39:40.954Z,100219.00
2018-09-20T13:42:14.718Z,100219.00
2018-09-20T13:44:46.369Z,100221.00
2018-09-20T13:50:47.542Z,100218.00
2018-09-20T13:53:22.094Z,100218.00
2018-09-20T13:55:55.121Z,100208.00
2018-09-20T13:58:34.007Z,100205.00
2018-09-20T14:01:10.848Z,100203.00
2018-09-20T14:03:51.176Z,100203.00
2018-09-20T14:06:24.297Z,100207.00
2018-09-20T14:09:15.016Z,100211.00
2018-09-20T14:11:48.497Z,100197.00
2018-09-20T14:14:19.843Z,100195.00
2018-09-20T14:16:52.445Z,100192.00
2018-09-20T14:19:23.918Z,100193.00
2018-09-20T14:21:53.704Z,100190.00
2018-09-20T14:24:24.836Z,100190.00
2018-09-20T14:26:57.894Z,100183.00
2018-09-20T14:29:31.070Z,100184.00
2018-09-20T14:32:06.772Z,100189.00
2018-09-20T14:34:44.025Z,100193.00
2018-09-20T14:37:18.917Z,100185.00
2018-09-20T14:39:52.802Z,100188.00
2018-09-20T14:42:24.041Z,100184.00
2018-09-20T14:45:09.851Z,100183.00
2018-09-20T14:50:28.077Z,100189.00
2018-09-20T14:53:01.686Z,100186.00
2018-09-20T14:55:40.605Z,100185.00
2018-09-20T14:58:10.822Z,100178.00
2018-09-20T15:00:52.964Z,100176.00
2018-09-20T15:03:26.440Z,100172.00
2018-09-20T15:05:57.173Z,100169.00
2018-09-20T15:08:31.947Z,100168.00
2018-09-20T15:11:01.945Z,100175.00
2018-09-20T15:13:32.838Z,100181.00
2018-09-20T15:16:02.562Z,100181.00
2018-09-20T15:18:33.405Z,100176.00
2018-09-20T15:21:03.489Z,100175.00
2018-09-20T15:23:32.995Z,100178.00
2018-09-20T15:26:05.965Z,100170.00
2018-09-20T15:28:39.968Z,100167.00
2018-09-20T15:31:15.330Z,100169.00
2018-09-20T15:33:57.644Z,100163.00
2018-09-20T15:36:29.895Z,100172.00
2018-09-20T15:39:02.523Z,100167.00
2018-09-20T15:41:32.275Z,100166.00
2018-09-20T15:44:30.497Z,100167.00
2018-09-20T15:47:02.367Z,100171.00
2018-09-20T15:49:44.919Z,100166.00
2018-09-20T15:52:19.818Z,100168.00
2018-09-20T15:55:04.035Z,100166.00
2018-09-20T15:57:43.273Z,100160.00
2018-09-20T16:00:13.048Z,100163.00
2018-09-20T16:02:44.249Z,100163.00
2018-09-20T16:05:14.769Z,100160.00
2018-09-20T16:07:44.480Z,100162.00
2018-09-20T16:10:30.994Z,100161.00
2018-09-20T16:13:00.905Z,100157.00
2018-09-20T16:15:39.014Z,100158.00
2018-09-20T16:18:09.809Z,100156.00
2018-09-20T16:20:45.462Z,100157.00
2018-09-20T16:23:15.063Z,100154.00
2018-09-20T16:25:44.812Z,100153.00
2018-09-20T16:28:32.918Z,100150.00
2018-09-20T16:37:45.539Z,100145.00
2018-09-20T16:40:24.603Z,100144.00
2018-09-20T16:42:54.174Z,100137.00
2018-09-20T16:45:24.583Z,100137.00
2018-09-20T16:47:55.192Z,100141.00
2018-09-20T16:50:24.842Z,100140.00
2018-09-20T16:52:54.688Z,100139.00
2018-09-20T16:55:24.382Z,100142.00
2018-09-20T16:57:54.202Z,100138.00
2018-09-20T17:00:24.413Z,100137.00
2018-09-20T17:02:54.169Z,100132.00
2018-09-20T17:05:25.394Z,100137.00
2018-09-20T17:07:55.360Z,100133.00
2018-09-20T17:10:26.209Z,100133.00
2018-09-20T17:12:55.851Z,100136.00
2018-09-20T17:15:27.357Z,100140.00
2018-09-20T17:17:57.144Z,100141.00
2018-09-20T17:20:27.329Z,100145.00
2018-09-20T17:22:58.318Z,100142.00
2018-09-20T17:25:29.846Z,100143.00
2018-09-20T17:28:01.618Z,100143.00
2018-09-20T17:30:31.589Z,100146.00
2018-09-20T17:33:01.683Z,100144.00
2018-09-20T17:35:32.203Z,100143.00
2018-09-20T17:38:05.331Z,100142.00
2018-09-20T17:40:37.567Z,100143.00
2018-09-20T17:43:10.210Z,100146.00
2018-09-20T17:45:40.744Z,100144.00
2018-09-20T17:48:11.845Z,100143.00
2018-09-20T17:50:42.648Z,100144.00
2018-09-20T17:53:13.217Z,100142.00
2018-09-20T17:55:45.525Z,100139.00
2018-09-20T17:58:16.625Z,100138.00
2018-09-20T18:00:47.444Z,100133.00
2018-09-20T18:03:17.357Z,100133.00
2018-09-20T18:05:47.149Z,100140.00
2018-09-20T18:08:16.904Z,100140.00
2018-09-20T18:10:46.422Z,100139.00
2018-09-20T18:13:16.789Z,100141.00
2018-09-20T18:15:47.317Z,100145.00
2018-09-20T18:18:17.555Z,100142.00
2018-09-20T18:20:47.513Z,100142.00
2018-09-20T18:23:17.921Z,100143.00
2018-09-20T18:25:48.849Z,100143.00
2018-09-20T18:28:18.843Z,100141.00
2018-09-20T18:30:49.178Z,100142.00
2018-09-20T18:33:19.842Z,100144.00
2018-09-20T18:35:51.562Z,100141.00
2018-09-20T18:38:21.405Z,100139.00
2018-09-20T18:40:52.397Z,100137.00
2018-09-20T18:43:23.088Z,100139.00
2018-09-20T18:45:59.296Z,100140.00
2018-09-20T18:48:29.994Z,100140.00
2018-09-20T18:51:00.364Z,100136.00
2018-09-20T18:53:32.662Z,100143.00
2018-09-20T18:56:04.035Z,100141.00
2018-09-20T18:58:36.686Z,100141.00
2018-09-20T19:01:08.593Z,100143.00
2018-09-20T19:03:49.795Z,100139.00
2018-09-20T19:06:19.817Z,100138.00
2018-09-20T19:08:55.360Z,100136.00
2018-09-20T19:11:30.191Z,100138.00
2018-09-20T19:14:04.876Z,100139.00
2018-09-20T19:16:37.428Z,100137.00
2018-09-20T19:22:21.999Z,100140.00
2018-09-20T19:24:54.598Z,100132.00
2018-09-20T19:27:38.465Z,100132.00
2018-09-20T19:30:11.509Z,100131.00
2018-09-20T19:32:46.874Z,100137.00
2018-09-20T19:35:24.444Z,100131.00
2018-09-20T19:38:00.279Z,100129.00
2018-09-20T19:40:32.189Z,100126.00
2018-09-20T19:43:01.992Z,100127.00
2018-09-20T19:45:38.485Z,100123.00
2018-09-20T19:48:35.760Z,100120.00
2018-09-20T19:51:12.334Z,100116.00
2018-09-20T19:53:46.396Z,100115.00
2018-09-20T19:56:20.228Z,100116.00
2018-09-20T19:58:50.178Z,100119.00
2018-09-20T20:01:27.366Z,100121.00
2018-09-20T20:03:59.932Z,100116.00
2018-09-20T20:06:30.411Z,100114.00
2018-09-20T20:09:01.901Z,100113.00
2018-09-20T20:11:34.321Z,100109.00
2018-09-20T20:14:06.809Z,100111.00
2018-09-20T20:17:04.714Z,100111.00
2018-09-20T20:19:42.179Z,100109.00
2018-09-20T20:22:28.980Z,100106.00
2018-09-20T20:25:13.120Z,100105.00
2018-09-20T20:28:01.925Z,100108.00
2018-09-20T20:30:41.358Z,100106.00
2018-09-20T20:33:18.041Z,100103.00
2018-09-20T20:36:16.908Z,100104.00
2018-09-20T20:39:28.523Z,100106.00
2018-09-20T20:42:25.273Z,100111.00
2018-09-20T20:45:11.170Z,100107.00
2018-09-20T20:47:53.856Z,100107.00
2018-09-20T20:53:57.633Z,100109.00
2018-09-20T20:56:28.245Z,100105.00
2018-09-20T20:58:59.662Z,100101.00
2018-09-20T21:05:15.058Z,100093.00
2018-09-20T21:07:46.304Z,100095.00
2018-09-20T21:10:17.908Z,100095.00
2018-09-20T21:12:49.534Z,100093.00
2018-09-20T21:15:23.072Z,100093.00
2018-09-20T21:17:52.727Z,100090.00
2018-09-20T21:20:24.873Z,100087.00
2018-09-20T21:22:56.142Z,100087.00
2018-09-20T21:25:25.902Z,100096.00
2018-09-20T21:28:03.652Z,100093.00
2018-09-20T21:30:42.692Z,100089.00
2018-09-20T21:33:38.050Z,100085.00
2018-09-20T21:36:08.226Z,100081.00
2018-09-20T21:38:37.836Z,100076.00
2018-09-20T21:41:08.954Z,100076.00
2018-09-20T21:43:38.940Z,100077.00
2018-09-20T21:46:10.239Z,100073.00
2018-09-20T21:48:42.053Z,100068.00
2018-09-20T21:51:14.573Z,100071.00
2018-09-20T21:53:44.085Z,100065.00
2018-09-20T21:56:15.382Z,100065.00
2018-09-20T21:58:57.968Z,100061.00
2018-09-20T22:01:35.639Z,100064.00
2018-09-20T22:04:06.375Z,100056.00
2018-09-20T22:06:39.294Z,100059.00
2018-09-20T22:09:13.145Z,100047.00
2018-09-20T22:11:49.594Z,100049.00
2018-09-20T22:14:20.918Z,100043.00
2018-09-20T22:16:52.785Z,100040.00
2018-09-20T22:19:24.122Z,100045.00
2018-09-20T22:21:54.128Z,100043.00
2018-09-20T22:24:23.939Z,100042.00
2018-09-20T22:27:00.312Z,100035.00
2018-09-20T22:29:30.792Z,100033.00
2018-09-20T22:32:01.616Z,100026.00
2018-09-20T22:34:32.484Z,100028.00
2018-09-20T22:37:04.279Z,100025.00
2018-09-20T22:39:35.212Z,100021.00
2018-09-20T22:42:06.958Z,100014.00
2018-09-20T22:44:37.760Z,100016.00
2018-09-20T22:47:08.576Z,100011.00
2018-09-20T22:49:40.603Z,100013.00
2018-09-20T22:52:10.568Z,100008.00
2018-09-20T22:54:41.392Z,100004.00
2018-09-20T22:57:13.860Z,99997.00
2018-09-20T22:59:43.933Z,99999.00
2018-09-20T23:02:14.983Z,99998.00
2018-09-20T23:04:45.526Z,99999.00
2018-09-20T23:07:16.615Z,100002.00
2018-09-20T23:09:47.228Z,99996.00
2018-09-20T23:12:16.990Z,99995.00
2018-09-20T23:14:46.777Z,99988.00
2018-09-20T23:17:16.439Z,99985.00
2018-09-20T23:19:49.533Z,99978.00
2018-09-20T23:22:19.816Z,99986.00
2018-09-20T23:24:49.467Z,99982.00
2018-09-20T23:27:19.208Z,99979.00
2018-09-20T23:29:56.120Z,99976.00
2018-09-20T23:32:27.064Z,99978.00
2018-09-20T23:34:56.535Z,99981.00
2018-09-20T23:37:26.061Z,99977.00
2018-09-20T23:39:55.854Z,99975.00
2018-09-20T23:42:26.474Z,99982.00
2018-09-20T23:44:56.884Z,99976.00
2018-09-20T23:47:28.588Z,99972.00
2018-09-20T23:50:01.852Z,99969.00
2018-09-20T23:52:31.262Z,99967.00
2018-09-20T23:55:02.230Z,99963.00
2018-09-20T23:57:32.861Z,99963.00
